createdAt,value
2024-02-02T00:00:52.297Z,12.80
2024-02-02T00:03:19.951Z,11.23
2024-02-02T00:05:47.698Z,11.73
2024-02-02T00:08:15.603Z,12.95
2024-02-02T00:10:43.213Z,8.77
2024-02-02T00:13:10.705Z,8.68
2024-02-02T00:15:38.170Z,10.45
2024-02-02T00:18:05.700Z,11.20
2024-02-02T00:20:33.201Z,10.52
2024-02-02T00:23:00.698Z,9.68
2024-02-02T00:25:28.318Z,12.85
2024-02-02T00:27:55.744Z,9.88
2024-02-02T00:30:23.309Z,14.80
2024-02-02T00:32:51.031Z,14.13
2024-02-02T00:35:18.593Z,15.10
2024-02-02T00:37:46.198Z,15.25
2024-02-02T00:40:13.998Z,14.30
2024-02-02T00:42:42.591Z,13.93
2024-02-02T00:45:10.159Z,14.30
2024-02-02T00:47:37.652Z,13.43
2024-02-02T00:50:07.178Z,12.07
2024-02-02T00:52:34.900Z,19.48
2024-02-02T00:55:03.201Z,13.15
2024-02-02T00:57:31.098Z,14.13
2024-02-02T00:59:58.587Z,11.38
2024-02-02T01:02:26.182Z,11.32
2024-02-02T01:04:53.749Z,13.25
2024-02-02T01:07:21.437Z,12.73
2024-02-02T01:09:48.795Z,13.95
2024-02-02T01:12:16.463Z,12.50
2024-02-02T01:14:44.086Z,14.80
2024-02-02T01:17:11.560Z,10.93
2024-02-02T01:19:39.171Z,11.68
2024-02-02T01:22:07.336Z,10.55
2024-02-02T01:24:34.940Z,11.07
2024-02-02T01:27:02.502Z,11.95
2024-02-02T01:29:30.857Z,10.20
2024-02-02T01:31:58.285Z,10.77
2024-02-02T01:34:25.818Z,19.92
2024-02-02T01:36:53.477Z,13.02
2024-02-02T01:39:21.082Z,11.10
2024-02-02T01:41:48.744Z,14.50
2024-02-02T01:44:16.600Z,12.63
2024-02-02T01:46:50.644Z,10.45
2024-02-02T01:49:18.202Z,8.52
2024-02-02T01:51:45.718Z,8.60
2024-02-02T01:54:13.626Z,9.07
2024-02-02T01:56:42.069Z,6.05
2024-02-02T01:59:09.585Z,7.20
2024-02-02T02:01:37.100Z,8.02
2024-02-02T02:04:04.960Z,8.40
2024-02-02T02:06:32.908Z,7.78
2024-02-02T02:09:00.340Z,10.02
2024-02-02T02:11:27.706Z,10.77
2024-02-02T02:13:56.173Z,10.48
2024-02-02T02:16:23.613Z,14.32
2024-02-02T02:18:56.161Z,14.88
2024-02-02T02:21:30.328Z,19.45
2024-02-02T02:23:58.123Z,11.23
2024-02-02T02:26:26.608Z,10.20
2024-02-02T02:28:54.092Z,8.85
2024-02-02T02:31:21.617Z,12.70
2024-02-02T02:33:49.174Z,23.10
2024-02-02T02:36:16.751Z,22.15
2024-02-02T02:38:45.217Z,15.43
2024-02-02T02:41:17.588Z,14.73
2024-02-02T02:43:45.063Z,19.08
2024-02-02T02:46:12.969Z,27.92
2024-02-02T02:48:40.593Z,13.65
2024-02-02T02:51:08.219Z,13.18
2024-02-02T02:53:35.732Z,18.48
2024-02-02T02:56:04.668Z,25.17
2024-02-02T02:58:32.552Z,14.75
2024-02-02T03:00:59.987Z,20.20
2024-02-02T03:03:27.476Z,17.08
2024-02-02T03:05:55.301Z,15.75
2024-02-02T03:08:22.909Z,19.33
2024-02-02T03:10:50.568Z,19.42
2024-02-02T03:13:18.133Z,18.05
2024-02-02T03:15:46.253Z,20.20
2024-02-02T03:18:15.921Z,17.63
2024-02-02T03:20:43.554Z,13.48
2024-02-02T03:23:11.228Z,25.80
2024-02-02T03:25:38.642Z,17.33
2024-02-02T03:28:06.346Z,17.42
2024-02-02T03:30:33.957Z,18.25
2024-02-02T03:33:02.444Z,17.40
2024-02-02T03:35:30.033Z,13.88
2024-02-02T03:37:58.135Z,15.90
2024-02-02T03:40:25.744Z,18.27
2024-02-02T03:42:53.418Z,16.08
2024-02-02T03:45:20.756Z,20.17
2024-02-02T03:47:48.343Z,9.98
2024-02-02T03:50:15.809Z,15.98
2024-02-02T03:52:43.233Z,21.33
2024-02-02T03:55:14.548Z,21.52
2024-02-02T03:57:42.061Z,13.60
2024-02-02T04:00:11.462Z,15.77
2024-02-02T04:02:43.591Z,32.00
2024-02-02T04:05:11.862Z,19.00
2024-02-02T04:07:39.378Z,11.82
2024-02-02T04:10:08.528Z,16.00
2024-02-02T04:12:36.498Z,22.83
2024-02-02T04:15:04.265Z,14.18
2024-02-02T04:17:32.539Z,14.65
2024-02-02T04:20:00.357Z,20.27
2024-02-02T04:22:27.912Z,27.00
2024-02-02T04:25:04.063Z,24.27
2024-02-02T04:27:32.054Z,18.05
2024-02-02T04:30:00.477Z,19.02
2024-02-02T04:32:27.998Z,21.98
2024-02-02T04:34:55.606Z,19.02
2024-02-02T04:37:23.391Z,17.23
2024-02-02T04:39:53.235Z,21.42
2024-02-02T04:42:20.615Z,16.23
2024-02-02T04:44:48.206Z,24.08
2024-02-02T04:47:15.780Z,17.58
2024-02-02T04:49:43.421Z,36.97
2024-02-02T04:52:11.247Z,20.27
2024-02-02T04:54:39.216Z,19.65
2024-02-02T04:57:06.715Z,34.20
2024-02-02T04:59:34.674Z,23.13
2024-02-02T05:02:06.092Z,26.15
2024-02-02T05:04:34.159Z,14.90
2024-02-02T05:07:02.400Z,27.80
2024-02-02T05:09:30.014Z,37.55
2024-02-02T05:11:57.561Z,22.63
2024-02-02T05:14:25.021Z,20.67
2024-02-02T05:16:53.432Z,17.48
2024-02-02T05:19:20.880Z,12.50
2024-02-02T05:21:48.455Z,21.75
2024-02-02T05:24:29.472Z,13.38
2024-02-02T05:27:04.643Z,40.50
2024-02-02T05:29:32.189Z,18.70
2024-02-02T05:31:59.671Z,14.88
2024-02-02T05:34:27.459Z,19.63
2024-02-02T05:36:55.004Z,20.73
2024-02-02T05:39:22.511Z,24.70
2024-02-02T05:41:52.427Z,17.73
2024-02-02T05:44:19.892Z,21.42
2024-02-02T05:46:47.361Z,30.23
2024-02-02T05:49:14.986Z,31.63
2024-02-02T05:51:42.633Z,19.65
2024-02-02T05:54:10.318Z,28.48
2024-02-02T05:56:37.928Z,14.73
2024-02-02T05:59:05.458Z,28.58
2024-02-02T06:01:32.997Z,20.08
2024-02-02T06:04:00.568Z,23.10
2024-02-02T06:06:29.586Z,27.00
2024-02-02T06:09:00.360Z,20.30
2024-02-02T06:11:29.582Z,24.10
2024-02-02T06:13:58.683Z,15.80
2024-02-02T06:16:27.260Z,27.75
2024-02-02T06:18:55.796Z,13.45
2024-02-02T06:21:23.650Z,17.27
2024-02-02T06:23:51.095Z,14.32
2024-02-02T06:26:18.534Z,18.35
2024-02-02T06:28:46.676Z,8.65
2024-02-02T06:31:16.899Z,8.80
2024-02-02T06:33:44.635Z,16.42
2024-02-02T06:36:12.208Z,12.77
2024-02-02T06:38:39.702Z,9.25
2024-02-02T06:41:08.848Z,14.77
2024-02-02T06:43:36.268Z,14.20
2024-02-02T06:46:03.705Z,16.88
2024-02-02T06:48:31.495Z,16.50
2024-02-02T06:51:00.162Z,18.33
2024-02-02T06:53:34.011Z,10.30
2024-02-02T06:56:01.608Z,11.90
2024-02-02T06:58:42.940Z,14.52
2024-02-02T07:01:11.198Z,12.10
2024-02-02T07:03:38.941Z,10.23
2024-02-02T07:06:07.105Z,9.40
2024-02-02T07:08:34.966Z,10.30
2024-02-02T07:11:23.879Z,12.27
2024-02-02T07:13:53.410Z,12.57
2024-02-02T07:16:29.121Z,9.18
2024-02-02T07:18:56.982Z,10.98
2024-02-02T07:21:42.696Z,12.50
2024-02-02T07:24:11.265Z,11.23
2024-02-02T07:26:39.077Z,9.32
2024-02-02T07:29:07.155Z,9.52
2024-02-02T07:31:42.581Z,8.35
2024-02-02T07:34:30.117Z,17.52
2024-02-02T07:36:58.022Z,15.82
2024-02-02T07:39:31.042Z,12.60
2024-02-02T07:41:59.507Z,9.30
2024-02-02T07:44:27.158Z,8.90
2024-02-02T07:46:54.735Z,9.82
2024-02-02T07:49:22.507Z,15.98
2024-02-02T07:51:50.152Z,14.52
2024-02-02T07:54:18.377Z,8.73
2024-02-02T07:56:45.846Z,9.13
2024-02-02T07:59:13.161Z,8.60
2024-02-02T08:01:40.807Z,8.30
2024-02-02T08:04:08.708Z,11.38
2024-02-02T08:06:36.364Z,10.90
2024-02-02T08:09:04.110Z,10.05
2024-02-02T08:11:37.081Z,9.18
2024-02-02T08:14:23.632Z,6.80
2024-02-02T08:16:51.177Z,7.10
2024-02-02T08:19:19.453Z,8.10
2024-02-02T08:21:48.030Z,8.68
2024-02-02T08:24:15.467Z,7.07
2024-02-02T08:26:43.026Z,4.78
2024-02-02T08:29:10.499Z,5.00
2024-02-02T08:31:38.280Z,10.32
2024-02-02T08:34:06.428Z,7.93
2024-02-02T08:36:34.115Z,6.53
2024-02-02T08:39:01.665Z,7.88
2024-02-02T08:41:30.054Z,13.13
2024-02-02T08:43:58.316Z,5.50
2024-02-02T08:46:26.602Z,7.57
2024-02-02T08:48:56.612Z,5.47
2024-02-02T08:51:25.460Z,3.47
2024-02-02T08:53:56.371Z,3.85
2024-02-02T08:56:25.482Z,3.17
2024-02-02T08:58:53.390Z,5.90
2024-02-02T09:01:39.838Z,7.07
2024-02-02T09:04:07.690Z,8.10
2024-02-02T09:06:39.018Z,9.73
2024-02-02T09:09:09.746Z,4.38
2024-02-02T09:11:37.341Z,4.10
2024-02-02T09:14:08.380Z,6.45
2024-02-02T09:16:43.722Z,6.22
2024-02-02T09:19:25.274Z,4.05
2024-02-02T09:21:53.653Z,3.20
2024-02-02T09:24:33.355Z,4.53
2024-02-02T09:27:01.095Z,5.72
2024-02-02T09:29:28.857Z,7.32
2024-02-02T09:31:56.439Z,6.18
2024-02-02T09:34:26.059Z,9.35
2024-02-02T09:36:54.799Z,6.13
2024-02-02T09:39:31.525Z,8.25
2024-02-02T09:42:02.225Z,7.78
2024-02-02T09:44:32.746Z,4.28
2024-02-02T09:47:20.615Z,8.13
2024-02-02T09:49:57.245Z,5.10
2024-02-02T09:52:39.535Z,8.32
2024-02-02T09:55:13.514Z,5.40
2024-02-02T09:57:41.108Z,6.65
2024-02-02T10:00:15.844Z,10.32
2024-02-02T10:02:48.431Z,6.25
2024-02-02T10:05:22.167Z,6.75
2024-02-02T10:08:08.014Z,7.63
2024-02-02T10:10:42.498Z,8.55
2024-02-02T10:13:28.294Z,4.90
2024-02-02T10:16:16.795Z,5.07
2024-02-02T10:18:44.320Z,10.80
2024-02-02T10:21:17.869Z,4.93
2024-02-02T10:24:08.623Z,5.30
2024-02-02T10:26:54.374Z,6.75
2024-02-02T10:29:25.916Z,10.18
2024-02-02T10:31:56.062Z,5.82
2024-02-02T10:34:29.864Z,11.50
2024-02-02T10:37:03.777Z,3.83
2024-02-02T10:39:50.199Z,10.38
2024-02-02T10:42:28.337Z,5.50
2024-02-02T10:44:58.652Z,5.07
2024-02-02T10:47:46.618Z,5.93
2024-02-02T10:50:14.234Z,6.63
2024-02-02T10:52:57.847Z,3.45
2024-02-02T10:55:42.008Z,4.57
2024-02-02T10:58:29.284Z,11.55
2024-02-02T11:01:07.597Z,1.90
2024-02-02T11:03:42.437Z,9.27
2024-02-02T11:06:24.500Z,4.82
2024-02-02T11:09:01.468Z,3.25
2024-02-02T11:11:31.876Z,7.03
2024-02-02T11:14:13.289Z,4.70
2024-02-02T11:16:49.584Z,7.45
2024-02-02T11:19:35.899Z,5.38
2024-02-02T11:22:15.812Z,4.30
2024-02-02T11:24:52.221Z,6.13
2024-02-02T11:27:25.099Z,6.13
2024-02-02T11:30:07.692Z,2.20
2024-02-02T11:32:48.411Z,4.72
2024-02-02T11:35:21.125Z,3.78
2024-02-02T11:37:54.338Z,2.53
2024-02-02T11:40:24.264Z,3.55
2024-02-02T11:42:57.309Z,6.22
2024-02-02T11:45:29.802Z,9.88
2024-02-02T11:48:06.878Z,4.80
2024-02-02T11:50:43.215Z,6.00
2024-02-02T11:53:29.193Z,5.07
2024-02-02T11:56:01.548Z,6.25
2024-02-02T11:58:31.319Z,4.78
2024-02-02T12:01:18.404Z,6.22
2024-02-02T12:04:01.515Z,3.17
2024-02-02T12:06:32.851Z,5.85
2024-02-02T12:09:19.267Z,2.83
2024-02-02T12:11:52.189Z,9.40
2024-02-02T12:14:23.866Z,7.22
2024-02-02T12:16:52.130Z,3.85
2024-02-02T12:19:19.834Z,8.40
2024-02-02T12:21:48.858Z,5.55
2024-02-02T12:24:18.355Z,6.40
2024-02-02T12:26:49.125Z,3.63
2024-02-02T12:29:17.278Z,5.07
2024-02-02T12:31:45.646Z,4.60
2024-02-02T12:34:16.162Z,9.27
2024-02-02T12:36:43.967Z,3.38
2024-02-02T12:39:11.767Z,10.45
2024-02-02T12:41:39.634Z,10.02
2024-02-02T12:44:10.373Z,7.30
2024-02-02T12:46:48.789Z,4.35
2024-02-02T12:49:16.650Z,6.18
2024-02-02T12:51:45.227Z,2.63
2024-02-02T12:54:13.697Z,4.45
2024-02-02T12:56:41.369Z,6.13
2024-02-02T12:59:12.621Z,5.53
2024-02-02T13:01:40.590Z,3.83
2024-02-02T13:04:08.226Z,8.35
2024-02-02T13:06:36.412Z,5.53
2024-02-02T13:09:23.292Z,3.35
2024-02-02T13:11:54.132Z,5.43
2024-02-02T13:14:39.706Z,3.22
2024-02-02T13:17:11.165Z,4.90
2024-02-02T13:19:45.624Z,4.78
2024-02-02T13:22:35.081Z,5.18
2024-02-02T13:25:03.069Z,4.70
2024-02-02T13:27:31.792Z,8.30
2024-02-02T13:30:00.892Z,4.57
2024-02-02T13:32:34.084Z,3.97
2024-02-02T13:37:30.975Z,3.53
2024-02-02T13:40:00.635Z,2.67
2024-02-02T13:42:37.747Z,3.75
2024-02-02T13:45:17.809Z,5.50
2024-02-02T13:47:54.920Z,5.30
2024-02-02T13:50:31.417Z,4.32
2024-02-02T13:52:59.316Z,5.95
2024-02-02T13:55:34.483Z,4.82
2024-02-02T13:58:02.641Z,5.53
2024-02-02T14:00:33.974Z,4.57
2024-02-02T14:03:09.583Z,12.55
2024-02-02T14:05:38.456Z,4.18
2024-02-02T14:08:10.058Z,5.60
2024-02-02T14:11:21.026Z,6.65
2024-02-02T14:14:12.690Z,7.78
2024-02-02T14:16:51.184Z,5.13
2024-02-02T14:19:27.313Z,11.45
2024-02-02T14:22:09.214Z,6.43
2024-02-02T14:24:52.926Z,5.68
2024-02-02T14:27:34.426Z,7.25
2024-02-02T14:30:05.535Z,4.75
2024-02-02T14:32:41.279Z,4.63
2024-02-02T14:35:13.718Z,22.60
2024-02-02T14:37:44.703Z,6.60
2024-02-02T14:40:14.615Z,7.88
2024-02-02T14:42:54.130Z,6.13
2024-02-02T14:45:43.054Z,9.23
2024-02-02T14:48:10.936Z,4.32
2024-02-02T14:50:40.162Z,7.25
2024-02-02T14:53:15.725Z,5.03
2024-02-02T14:55:49.048Z,5.05
2024-02-02T14:58:17.056Z,4.32
2024-02-02T15:00:49.315Z,9.73
2024-02-02T15:03:19.300Z,6.45
2024-02-02T15:05:56.884Z,7.93
2024-02-02T15:08:26.458Z,5.15
2024-02-02T15:11:07.409Z,4.28
2024-02-02T15:13:35.499Z,4.35
2024-02-02T15:16:08.726Z,12.25
2024-02-02T15:18:36.881Z,8.15
2024-02-02T15:21:04.765Z,7.57
2024-02-02T15:23:32.919Z,12.38
2024-02-02T15:26:03.856Z,5.45
2024-02-02T15:28:34.047Z,6.10
2024-02-02T15:31:01.721Z,18.30
2024-02-02T15:33:29.613Z,9.02
2024-02-02T15:35:57.765Z,12.65
2024-02-02T15:38:26.222Z,5.50
2024-02-02T15:40:55.595Z,6.05
2024-02-02T15:43:26.518Z,5.97
2024-02-02T15:45:54.909Z,12.55
2024-02-02T15:48:22.829Z,7.78
2024-02-02T15:50:50.795Z,10.77
2024-02-02T15:53:19.488Z,9.30
2024-02-02T15:55:51.607Z,10.23
2024-02-02T15:58:19.205Z,8.30
2024-02-02T16:00:47.272Z,8.35
2024-02-02T16:03:19.893Z,5.20
2024-02-02T16:05:47.545Z,6.32
2024-02-02T16:08:15.575Z,6.25
2024-02-02T16:10:45.269Z,7.20
2024-02-02T16:13:18.092Z,8.52
2024-02-02T16:15:48.439Z,11.80
2024-02-02T16:18:37.342Z,13.70
2024-02-02T16:21:18.837Z,7.63
2024-02-02T16:23:48.384Z,13.75
2024-02-02T16:26:23.789Z,10.00
2024-02-02T16:28:52.054Z,8.35
2024-02-02T16:31:20.064Z,12.45
2024-02-02T16:33:50.609Z,17.00
2024-02-02T16:36:18.343Z,9.00
2024-02-02T16:38:48.148Z,9.40
2024-02-02T16:46:06.055Z,11.98
2024-02-02T16:48:37.212Z,8.57
2024-02-02T16:51:05.385Z,9.45
2024-02-02T16:53:35.401Z,9.63
2024-02-02T16:56:18.419Z,6.53
2024-02-02T16:58:46.392Z,8.77
2024-02-02T17:01:14.304Z,19.17
2024-02-02T17:03:43.059Z,8.07
2024-02-02T17:06:11.841Z,20.30
2024-02-02T17:08:41.526Z,25.75
2024-02-02T17:11:26.274Z,10.95
2024-02-02T17:13:55.333Z,10.35
2024-02-02T17:16:25.718Z,9.18
2024-02-02T17:18:54.853Z,7.47
2024-02-02T17:21:25.826Z,16.40
2024-02-02T17:24:07.587Z,6.38
2024-02-02T17:26:41.143Z,11.43
2024-02-02T17:34:44.577Z,16.60
2024-02-02T17:37:16.177Z,9.55
2024-02-02T17:39:49.712Z,7.07
2024-02-02T17:42:48.969Z,13.68
2024-02-02T17:45:53.228Z,13.32
2024-02-02T17:48:48.759Z,12.52
2024-02-02T17:51:21.529Z,11.57
2024-02-02T17:53:54.219Z,12.32
2024-02-02T17:56:23.987Z,10.32
2024-02-02T17:59:12.836Z,11.80
2024-02-02T18:02:12.064Z,12.80
2024-02-02T18:04:43.842Z,9.57
2024-02-02T18:07:13.484Z,9.52
2024-02-02T18:09:41.388Z,9.20
2024-02-02T18:12:13.447Z,11.25
2024-02-02T18:14:42.177Z,5.88
2024-02-02T18:17:10.813Z,6.43
2024-02-02T18:19:38.925Z,9.40
2024-02-02T18:24:58.951Z,12.70
2024-02-02T18:27:26.876Z,8.35
2024-02-02T18:29:55.812Z,12.40
2024-02-02T18:32:23.236Z,10.55
2024-02-02T18:34:53.421Z,12.23
2024-02-02T18:37:42.622Z,15.48
2024-02-02T18:40:10.349Z,8.45
2024-02-02T18:42:38.578Z,5.60
2024-02-02T18:45:06.699Z,7.03
2024-02-02T18:47:34.180Z,9.93
2024-02-02T18:50:10.925Z,5.57
2024-02-02T18:52:48.862Z,6.72
2024-02-02T18:55:41.676Z,12.40
2024-02-02T18:58:12.855Z,9.95
2024-02-02T19:00:45.903Z,9.68
2024-02-02T19:03:16.482Z,7.22
2024-02-02T19:05:44.573Z,6.20
2024-02-02T19:08:13.890Z,8.23
2024-02-02T19:11:16.300Z,7.32
2024-02-02T19:13:44.719Z,6.13
2024-02-02T19:16:18.598Z,5.97
2024-02-02T19:18:46.193Z,10.32
2024-02-02T19:21:23.747Z,6.93
2024-02-02T19:23:51.609Z,11.25
2024-02-02T19:26:25.493Z,12.80
2024-02-02T19:28:59.464Z,1.90
2024-02-02T19:34:00.612Z,4.65
2024-02-02T19:36:29.858Z,8.80
2024-02-02T19:38:58.400Z,14.00
2024-02-02T19:41:33.262Z,8.85
2024-02-02T19:44:10.673Z,8.45
2024-02-02T19:46:41.325Z,9.30
2024-02-02T19:49:11.647Z,5.78
2024-02-02T19:51:45.250Z,7.60
2024-02-02T19:54:13.438Z,5.78
2024-02-02T19:56:47.263Z,5.55
2024-02-02T19:59:21.083Z,10.43
2024-02-02T20:01:52.800Z,11.45
2024-02-02T20:04:20.844Z,4.70
2024-02-02T20:06:49.045Z,7.05
2024-02-02T20:09:23.258Z,7.13
2024-02-02T20:11:54.202Z,7.60
2024-02-02T20:14:22.388Z,7.97
2024-02-02T20:16:53.254Z,9.15
2024-02-02T20:19:23.659Z,6.50
2024-02-02T20:21:51.555Z,11.15
2024-02-02T20:24:22.040Z,6.35
2024-02-02T20:26:52.561Z,8.98
2024-02-02T20:29:20.188Z,8.23
2024-02-02T20:31:51.587Z,6.85
2024-02-02T20:34:19.219Z,4.75
2024-02-02T20:36:46.996Z,8.15
2024-02-02T20:39:14.740Z,14.95
2024-02-02T20:41:42.739Z,25.50
2024-02-02T20:44:10.578Z,4.28
2024-02-02T20:46:38.855Z,7.45
2024-02-02T20:49:09.322Z,8.82
2024-02-02T20:51:43.070Z,5.47
2024-02-02T20:54:14.233Z,6.32
2024-02-02T20:56:43.048Z,6.10
2024-02-02T20:59:18.131Z,9.77
2024-02-02T21:02:24.665Z,6.82
2024-02-02T21:04:52.441Z,6.18
2024-02-02T21:07:20.244Z,6.25
2024-02-02T21:09:47.948Z,5.40
2024-02-02T21:12:15.837Z,7.85
2024-02-02T21:14:43.651Z,5.55
2024-02-02T21:17:13.052Z,6.32
2024-02-02T21:19:42.915Z,8.38
2024-02-02T21:22:10.611Z,5.78
2024-02-02T21:24:38.163Z,4.13
2024-02-02T21:27:08.318Z,9.00
2024-02-02T21:29:39.841Z,7.45
2024-02-02T21:32:09.868Z,5.70
2024-02-02T21:34:37.774Z,10.20
2024-02-02T21:37:05.500Z,6.65
2024-02-02T21:39:33.597Z,4.28
2024-02-02T21:42:01.938Z,5.40
2024-02-02T21:44:30.069Z,6.47
2024-02-02T21:46:59.760Z,3.95
2024-02-02T21:49:27.750Z,4.40
2024-02-02T21:51:57.015Z,5.88
2024-02-02T21:54:30.574Z,4.20
2024-02-02T21:57:01.669Z,9.18
2024-02-02T21:59:33.927Z,10.50
2024-02-02T22:02:03.446Z,2.40
2024-02-02T22:04:31.367Z,5.72
2024-02-02T22:06:59.302Z,6.78
2024-02-02T22:09:29.501Z,5.05
2024-02-02T22:11:57.336Z,5.00
2024-02-02T22:14:25.828Z,5.75
2024-02-02T22:16:54.544Z,3.65
2024-02-02T22:19:24.896Z,7.47
2024-02-02T22:21:54.851Z,6.88
2024-02-02T22:24:22.857Z,3.67
2024-02-02T22:26:50.699Z,4.50
2024-02-02T22:29:18.468Z,5.15
2024-02-02T22:31:46.246Z,5.32
2024-02-02T22:34:14.209Z,5.32
2024-02-02T22:36:44.623Z,5.18
2024-02-02T22:39:12.646Z,5.13
2024-02-02T22:41:40.344Z,5.40
2024-02-02T22:44:08.292Z,6.30
2024-02-02T22:46:36.162Z,11.40
2024-02-02T22:49:04.237Z,8.52
2024-02-02T22:51:32.093Z,2.45
2024-02-02T22:53:59.816Z,7.43
2024-02-02T22:56:30.138Z,6.85
2024-02-02T22:59:00.350Z,7.82
2024-02-02T23:01:28.162Z,4.63
2024-02-02T23:03:57.571Z,4.97
2024-02-02T23:06:25.544Z,6.32
2024-02-02T23:08:53.592Z,3.75
2024-02-02T23:11:21.443Z,7.15
2024-02-02T23:13:49.193Z,3.10
2024-02-02T23:16:16.961Z,11.07
2024-02-02T23:18:46.465Z,6.18
2024-02-02T23:21:14.581Z,9.05
2024-02-02T23:23:43.475Z,9.90
2024-02-02T23:26:14.562Z,8.38
2024-02-02T23:28:42.053Z,5.15
2024-02-02T23:31:12.798Z,8.80
2024-02-02T23:33:41.104Z,3.35
2024-02-02T23:36:08.724Z,5.93
2024-02-02T23:38:36.315Z,4.45
2024-02-02T23:41:03.917Z,7.43
2024-02-02T23:43:31.403Z,4.47
2024-02-02T23:45:59.089Z,6.13
2024-02-02T23:48:26.763Z,5.65
2024-02-02T23:50:54.254Z,5.35
2024-02-02T23:53:21.844Z,5.68
2024-02-02T23:55:49.254Z,3.80
2024-02-02T23:58:16.767Z,5.85
